Time;durP1;ratioP1;P1;durP2;ratioP2;P2;SDS_P1;SDS_P2;PMS_P1;PMS_P2;Temp;Humidity;BMP_temperature;BMP_pressure;BME280_temperature;BME280_humidity;BME280_pressure;Samples;Min_cycle;Max_cycle;Signal;HPM_P1;HPM_P2
2023/06/18 00:01:48;;;;;;;1999.90;999.90;;;20.30;99.90;;;;;;4969733;28;20103;-71
2023/06/18 00:04:13;;;;;;;1999.90;999.90;;;20.30;99.90;;;;;;4973879;28;20041;-71
2023/06/18 00:06:39;;;;;;;1999.90;999.90;;;20.20;99.90;;;;;;4956771;28;20030;-73
2023/06/18 00:09:05;;;;;;;1999.90;999.90;;;20.20;99.90;;;;;;4957100;28;20024;-73
2023/06/18 00:11:30;;;;;;;1999.90;999.90;;;20.20;99.90;;;;;;4955226;29;20114;-71
2023/06/18 00:13:56;;;;;;;1999.90;999.90;;;20.20;99.90;;;;;;4958087;28;20038;-71
2023/06/18 00:16:22;;;;;;;1999.90;999.90;;;20.20;99.90;;;;;;4960636;29;20046;-73
2023/06/18 00:18:47;;;;;;;1999.90;999.90;;;20.20;99.90;;;;;;4961118;29;20402;-71
2023/06/18 00:21:13;;;;;;;1999.90;999.90;;;20.10;99.90;;;;;;4961033;28;20023;-71
2023/06/18 00:23:38;;;;;;;1999.90;999.90;;;20.20;99.90;;;;;;4960449;28;20026;-74
2023/06/18 00:26:04;;;;;;;1999.90;999.90;;;20.20;99.90;;;;;;4960973;29;20435;-73
2023/06/18 00:28:31;;;;;;;1999.90;999.90;;;20.20;99.90;;;;;;4961328;28;20027;-71
2023/06/18 00:30:57;;;;;;;1999.90;999.90;;;20.10;99.90;;;;;;4943998;29;20414;-71
2023/06/18 00:33:24;;;;;;;1999.90;999.90;;;20.10;99.90;;;;;;4961807;28;20031;-71
2023/06/18 00:35:56;;;;;;;1999.90;999.90;;;20.10;99.90;;;;;;4980400;28;20041;-74
2023/06/18 00:38:23;;;;;;;1999.90;999.90;;;20.10;99.90;;;;;;4980190;28;20038;-71
2023/06/18 00:40:49;;;;;;;1999.90;999.90;;;20.10;99.90;;;;;;4946012;28;20055;-74
2023/06/18 00:43:14;;;;;;;1999.90;999.90;;;20.00;99.90;;;;;;4960861;29;20402;-71
2023/06/18 00:45:40;;;;;;;1999.90;999.90;;;20.00;99.90;;;;;;4961088;28;20039;-71
2023/06/18 00:48:06;;;;;;;1999.90;999.90;;;20.00;99.90;;;;;;4960979;29;20039;-74
2023/06/18 00:50:33;;;;;;;1999.90;999.90;;;20.00;99.90;;;;;;4960746;28;20043;-74
2023/06/18 00:53:01;;;;;;;1999.90;999.90;;;20.00;99.90;;;;;;4960728;29;20031;-71
2023/06/18 00:55:31;;;;;;;1999.90;999.90;;;20.00;99.90;;;;;;4960930;29;20027;-71
2023/06/18 00:58:02;;;;;;;1999.90;999.90;;;19.90;99.90;;;;;;4961008;28;20120;-71
2023/06/18 01:00:34;;;;;;;1999.90;999.90;;;19.90;99.90;;;;;;4961019;29;20142;-74
2023/06/18 01:03:07;;;;;;;1999.90;999.90;;;19.90;99.90;;;;;;4956584;28;20027;-73
2023/06/18 01:05:33;;;;;;;1999.90;999.90;;;19.90;99.90;;;;;;4943448;29;20151;-71
2023/06/18 01:08:00;;;;;;;1999.90;999.90;;;19.90;99.90;;;;;;4965868;28;20126;-71
2023/06/18 01:10:29;;;;;;;1999.90;999.90;;;19.90;99.90;;;;;;4979956;28;20033;-71
2023/06/18 01:12:58;;;;;;;1999.90;999.90;;;20.00;99.90;;;;;;4962432;28;20512;-71
2023/06/18 01:15:27;;;;;;;1999.90;999.90;;;20.00;99.90;;;;;;4980335;28;20106;-73
2023/06/18 01:17:56;;;;;;;1999.90;999.90;;;20.00;99.90;;;;;;4976307;28;20023;-72
2023/06/18 01:20:25;;;;;;;1999.90;999.90;;;20.00;99.90;;;;;;4943531;29;20413;-71
2023/06/18 01:23:02;;;;;;;1999.90;999.90;;;20.00;99.90;;;;;;4959716;29;20023;-71
2023/06/18 01:25:32;;;;;;;1999.90;999.90;;;20.00;99.90;;;;;;4958686;28;20079;-71
2023/06/18 01:28:03;;;;;;;1999.90;999.90;;;20.00;99.90;;;;;;4957701;29;20023;-73
2023/06/18 01:30:29;;;;;;;1999.90;999.90;;;20.00;99.90;;;;;;4957471;29;20023;-71
2023/06/18 01:32:55;;;;;;;1999.90;999.90;;;20.00;99.90;;;;;;4960514;28;20023;-71
2023/06/18 01:35:22;;;;;;;1999.90;999.90;;;20.00;99.90;;;;;;4976872;28;20027;-72
2023/06/18 01:38:31;;;;;;;1999.90;999.90;;;20.00;99.90;;;;;;4976105;28;20022;-71
2023/06/18 01:41:05;;;;;;;1999.90;999.90;;;20.00;99.90;;;;;;4959756;28;20027;-71
2023/06/18 01:43:36;;;;;;;1999.90;999.90;;;20.10;99.90;;;;;;4957150;29;20094;-71
2023/06/18 01:46:22;;;;;;;1999.90;999.90;;;20.10;99.90;;;;;;4957340;29;20023;-71
2023/06/18 01:48:58;;;;;;;1999.90;999.90;;;20.10;99.90;;;;;;4957163;29;20057;-71
2023/06/18 01:51:25;;;;;;;1999.90;999.90;;;20.10;99.90;;;;;;4957225;29;20493;-71
2023/06/18 01:53:53;;;;;;;1999.90;999.90;;;20.00;99.90;;;;;;4940584;29;20549;-74
2023/06/18 01:56:20;;;;;;;1999.90;999.90;;;20.00;99.90;;;;;;4957133;29;20086;-73
2023/06/18 01:58:46;;;;;;;1999.90;999.90;;;20.00;99.90;;;;;;4956653;29;20114;-71
2023/06/18 02:01:11;;;;;;;1999.90;999.90;;;19.90;99.90;;;;;;4956894;28;20561;-71
2023/06/18 02:03:38;;;;;;;1999.90;999.90;;;19.90;99.90;;;;;;4964147;28;20513;-71
2023/06/18 02:06:05;;;;;;;1999.90;999.90;;;19.80;99.90;;;;;;4976256;28;20044;-74
2023/06/18 02:08:30;;;;;;;1999.90;999.90;;;19.80;99.90;;;;;;4975005;28;20070;-71
2023/06/18 02:10:56;;;;;;;1999.90;999.90;;;19.80;99.90;;;;;;4956879;29;20447;-71
2023/06/18 02:13:22;;;;;;;1999.90;999.90;;;19.80;99.90;;;;;;4964543;28;20034;-71
2023/06/18 02:15:47;;;;;;;1999.90;999.90;;;19.70;99.90;;;;;;4956954;29;20035;-71
2023/06/18 02:18:13;;;;;;;1999.90;999.90;;;19.80;99.90;;;;;;4956564;29;20107;-71
2023/06/18 02:20:41;;;;;;;1999.90;999.90;;;19.80;99.90;;;;;;4956729;29;20475;-73
2023/06/18 02:23:07;;;;;;;1999.90;999.90;;;19.70;99.90;;;;;;4955567;29;20030;-71
2023/06/18 02:25:33;;;;;;;1999.90;999.90;;;19.70;99.90;;;;;;4956517;29;20031;-71
2023/06/18 02:28:00;;;;;;;1999.90;999.90;;;19.70;99.90;;;;;;4957458;28;20031;-72
2023/06/18 02:30:28;;;;;;;1999.90;999.90;;;19.70;99.90;;;;;;4972421;28;20027;-71
2023/06/18 02:33:01;;;;;;;1999.90;999.90;;;19.70;99.90;;;;;;4956347;29;20082;-74
2023/06/18 02:35:29;;;;;;;1999.90;999.90;;;19.60;99.90;;;;;;4956402;29;20035;-74
2023/06/18 02:37:55;;;;;;;1999.90;999.90;;;19.60;99.90;;;;;;4955291;28;20028;-71
2023/06/18 02:40:22;;;;;;;1999.90;999.90;;;19.50;99.90;;;;;;4964204;28;20043;-71
2023/06/18 02:42:48;;;;;;;1999.90;999.90;;;19.50;99.90;;;;;;4956515;29;20413;-71
2023/06/18 02:45:16;;;;;;;1999.90;999.90;;;19.40;99.90;;;;;;4956835;28;20038;-74
2023/06/18 02:47:43;;;;;;;1999.90;999.90;;;19.40;99.90;;;;;;4954694;28;20431;-73
2023/06/18 02:50:09;;;;;;;1999.90;999.90;;;19.30;99.90;;;;;;4954688;29;20525;-73
2023/06/18 02:52:34;;;;;;;1999.90;999.90;;;19.30;99.90;;;;;;4945236;28;20060;-71
2023/06/18 02:55:00;;;;;;;1999.90;999.90;;;19.30;99.90;;;;;;4937247;29;20040;-71
2023/06/18 02:57:25;;;;;;;1999.90;999.90;;;19.20;99.90;;;;;;4936819;29;20486;-71
2023/06/18 02:59:51;;;;;;;1999.90;999.90;;;19.20;99.90;;;;;;4936712;29;20024;-73
2023/06/18 03:02:17;;;;;;;1999.90;999.90;;;19.20;99.90;;;;;;4936348;29;20036;-71
2023/06/18 03:04:43;;;;;;;1999.90;999.90;;;19.10;99.90;;;;;;4936790;29;20043;-71
2023/06/18 03:07:08;;;;;;;1999.90;999.90;;;19.10;99.90;;;;;;4936690;29;20491;-71
2023/06/18 03:09:34;;;;;;;1999.90;999.90;;;19.10;99.90;;;;;;4936642;29;20059;-71
2023/06/18 03:12:00;;;;;;;1999.90;999.90;;;19.00;99.90;;;;;;4937498;29;20438;-73
2023/06/18 03:14:26;;;;;;;1999.90;999.90;;;19.00;99.90;;;;;;4955580;29;20038;-73
2023/06/18 03:16:52;;;;;;;1999.90;999.90;;;19.00;99.90;;;;;;4954403;29;20031;-71
2023/06/18 03:19:17;;;;;;;1999.90;999.90;;;19.00;99.90;;;;;;4955857;29;20383;-71
2023/06/18 03:21:43;;;;;;;1999.90;999.90;;;19.00;99.90;;;;;;4955599;29;20027;-71
2023/06/18 03:24:10;;;;;;;1999.90;999.90;;;18.90;99.90;;;;;;4954387;29;20031;-73
2023/06/18 03:26:36;;;;;;;1999.90;999.90;;;18.90;99.90;;;;;;4955512;29;20112;-71
2023/06/18 03:29:05;;;;;;;1999.90;999.90;;;18.90;99.90;;;;;;4949749;29;20040;-71
2023/06/18 03:31:31;;;;;;;1999.90;999.90;;;18.90;99.90;;;;;;4936178;29;20027;-71
2023/06/18 03:34:01;;;;;;;1999.90;999.90;;;19.10;99.90;;;;;;4941175;29;20027;-71
2023/06/18 03:36:28;;;;;;;1999.90;999.90;;;19.10;99.90;;;;;;4955207;29;20375;-73
2023/06/18 03:38:55;;;;;;;1999.90;999.90;;;19.10;99.90;;;;;;4954785;28;20035;-73
2023/06/18 03:41:21;;;;;;;1999.90;999.90;;;19.10;99.90;;;;;;4938039;29;20024;-71
2023/06/18 03:43:46;;;;;;;1999.90;999.90;;;19.10;99.90;;;;;;4938644;29;20077;-71
2023/06/18 03:46:12;;;;;;;1999.90;999.90;;;19.10;99.90;;;;;;4954689;29;20058;-71
2023/06/18 03:48:38;;;;;;;1999.90;999.90;;;19.10;99.90;;;;;;4965333;28;20058;-71
2023/06/18 03:51:04;;;;;;;1999.90;999.90;;;19.10;99.90;;;;;;4955049;29;20055;-73
2023/06/18 03:53:30;;;;;;;1999.90;999.90;;;19.00;99.90;;;;;;4955125;28;20469;-71
2023/06/18 03:55:56;;;;;;;1999.90;999.90;;;18.90;99.90;;;;;;4974415;28;20093;-71
2023/06/18 03:58:21;;;;;;;1999.90;999.90;;;18.90;99.90;;;;;;4960667;28;20490;-71
2023/06/18 04:00:47;;;;;;;1999.90;999.90;;;18.90;99.90;;;;;;4954902;29;20031;-71
2023/06/18 04:03:13;;;;;;;1999.90;999.90;;;18.90;99.90;;;;;;4954834;28;20035;-73
2023/06/18 04:05:39;;;;;;;1999.90;999.90;;;18.90;99.90;;;;;;4954795;29;20035;-71
2023/06/18 04:08:04;;;;;;;1999.90;999.90;;;18.90;99.90;;;;;;4937858;29;20375;-71
2023/06/18 04:10:30;;;;;;;1999.90;999.90;;;19.00;99.90;;;;;;4954636;29;20028;-71
2023/06/18 04:12:55;;;;;;;1999.90;999.90;;;19.10;99.90;;;;;;4963555;28;20046;-71
2023/06/18 04:15:21;;;;;;;1999.90;999.90;;;19.10;99.90;;;;;;4974175;28;20015;-73
2023/06/18 04:17:46;;;;;;;1999.90;999.90;;;19.10;99.90;;;;;;4973465;28;20468;-73
2023/06/18 04:20:13;;;;;;;1999.90;999.90;;;19.10;99.90;;;;;;4973849;28;20037;-71
2023/06/18 04:22:38;;;;;;;1999.90;999.90;;;19.10;99.90;;;;;;4974104;28;20039;-71
2023/06/18 04:25:05;;;;;;;1999.90;999.90;;;19.10;99.90;;;;;;4961174;28;20134;-71
2023/06/18 04:27:31;;;;;;;1999.90;999.90;;;19.10;99.90;;;;;;4954684;29;20031;-71
2023/06/18 04:29:57;;;;;;;1999.90;999.90;;;19.00;99.90;;;;;;4954599;29;20098;-73
2023/06/18 04:32:22;;;;;;;1999.90;999.90;;;19.00;99.90;;;;;;4954570;29;20039;-71
2023/06/18 04:34:48;;;;;;;1999.90;999.90;;;19.00;99.90;;;;;;4954729;29;20431;-71
2023/06/18 04:37:13;;;;;;;1999.90;999.90;;;18.90;99.90;;;;;;4954695;29;20038;-73
2023/06/18 04:39:39;;;;;;;1999.90;999.90;;;18.90;99.90;;;;;;4954534;28;20020;-71
2023/06/18 04:42:05;;;;;;;1999.90;999.90;;;18.90;99.90;;;;;;4954744;29;20118;-71
2023/06/18 04:44:30;;;;;;;1999.90;999.90;;;18.80;99.90;;;;;;4954320;29;20498;-71
2023/06/18 04:46:56;;;;;;;1999.90;999.90;;;18.90;99.90;;;;;;4955228;29;20110;-72
2023/06/18 04:49:21;;;;;;;1999.90;999.90;;;18.90;99.90;;;;;;4937111;29;20399;-71
2023/06/18 04:51:47;;;;;;;1999.90;999.90;;;18.90;99.90;;;;;;4954493;29;20034;-71
2023/06/18 04:54:13;;;;;;;1999.90;999.90;;;18.90;99.90;;;;;;4939726;28;20496;-71
2023/06/18 04:56:38;;;;;;;1999.90;999.90;;;18.90;99.90;;;;;;4974343;28;20034;-73
2023/06/18 04:59:04;;;;;;;1999.90;999.90;;;18.90;99.90;;;;;;4938360;28;20023;-74
2023/06/18 05:01:29;;;;;;;1999.90;999.90;;;18.90;99.90;;;;;;4968410;28;20478;-71
2023/06/18 05:03:55;;;;;;;1999.90;999.90;;;19.00;99.90;;;;;;4958170;29;20027;-71
2023/06/18 05:06:21;;;;;;;1999.90;999.90;;;19.00;99.90;;;;;;4977175;28;20038;-71
2023/06/18 05:08:47;;;;;;;1999.90;999.90;;;19.00;99.90;;;;;;4973764;28;20027;-73
2023/06/18 05:11:13;;;;;;;1999.90;999.90;;;19.10;99.90;;;;;;4957994;29;20038;-74
2023/06/18 05:13:38;;;;;;;1999.90;999.90;;;19.20;99.90;;;;;;4972346;28;20063;-71
2023/06/18 05:16:04;;;;;;;1999.90;999.90;;;19.30;99.90;;;;;;4960365;28;20440;-71
2023/06/18 05:18:30;;;;;;;1999.90;999.90;;;19.40;99.90;;;;;;4957873;29;20039;-71
2023/06/18 05:20:56;;;;;;;1999.90;999.90;;;19.50;99.90;;;;;;4958145;29;20106;-73
2023/06/18 05:23:21;;;;;;;1999.90;999.90;;;19.50;99.90;;;;;;4958026;29;20059;-73
2023/06/18 05:25:47;;;;;;;1999.90;999.90;;;19.50;99.90;;;;;;4970555;28;20114;-73
2023/06/18 05:28:12;;;;;;;1999.90;999.90;;;19.60;99.90;;;;;;4976922;28;20110;-71
2023/06/18 05:30:38;;;;;;;1999.90;999.90;;;19.60;99.90;;;;;;4964802;28;20027;-71
2023/06/18 05:33:04;;;;;;;1999.90;999.90;;;19.70;99.90;;;;;;4957444;29;20431;-71
2023/06/18 05:35:30;;;;;;;1999.90;999.90;;;19.80;99.90;;;;;;4957424;29;20158;-73
2023/06/18 05:37:55;;;;;;;1999.90;999.90;;;19.90;99.90;;;;;;4957563;29;20023;-74
2023/06/18 05:40:21;;;;;;;1999.90;999.90;;;19.90;99.90;;;;;;4956840;29;20044;-71
2023/06/18 05:42:47;;;;;;;1999.90;999.90;;;20.10;99.90;;;;;;4957322;29;20039;-71
2023/06/18 05:45:12;;;;;;;1999.90;999.90;;;20.20;99.90;;;;;;4939964;29;20050;-71
2023/06/18 05:47:38;;;;;;;1999.90;999.90;;;20.30;99.90;;;;;;4957653;29;20130;-73
2023/06/18 05:50:04;;;;;;;1999.90;999.90;;;20.40;99.90;;;;;;4963779;28;20062;-74
2023/06/18 05:52:30;;;;;;;1999.90;999.90;;;20.50;99.90;;;;;;4976288;28;20035;-71
2023/06/18 05:54:55;;;;;;;1999.90;999.90;;;20.50;99.90;;;;;;4976469;28;20038;-74
2023/06/18 05:57:21;;;;;;;1999.90;999.90;;;20.60;99.90;;;;;;4971298;28;20042;-71
2023/06/18 05:59:48;;;;;;;1999.90;999.90;;;20.70;99.90;;;;;;4956946;29;20050;-73
2023/06/18 06:02:13;;;;;;;1999.90;999.90;;;20.80;99.90;;;;;;4956664;28;20031;-71
2023/06/18 06:04:39;;;;;;;1999.90;999.90;;;20.90;99.90;;;;;;4956982;29;20114;-71
2023/06/18 06:07:05;;;;;;;1999.90;999.90;;;21.10;99.90;;;;;;4957107;29;20106;-71
2023/06/18 06:09:31;;;;;;;1999.90;999.90;;;21.20;99.90;;;;;;4956726;29;20019;-71
2023/06/18 06:11:56;;;;;;;1999.90;999.90;;;21.20;99.90;;;;;;4957488;28;20032;-71
2023/06/18 06:14:22;;;;;;;1999.90;999.90;;;21.40;99.90;;;;;;4975998;28;20486;-74
2023/06/18 06:16:50;;;;;;;1999.90;999.90;;;21.40;99.90;;;;;;4956946;28;20032;-74
2023/06/18 06:19:16;;;;;;;1999.90;999.90;;;21.50;99.90;;;;;;4939587;29;20117;-71
2023/06/18 06:21:41;;;;;;;1999.90;999.90;;;21.60;99.90;;;;;;4956736;29;20058;-71
2023/06/18 06:24:07;;;;;;;1999.90;999.90;;;21.60;99.90;;;;;;4956505;29;20031;-71
2023/06/18 06:26:32;;;;;;;1999.90;999.90;;;21.60;99.90;;;;;;4955740;28;20031;-70
2023/06/18 06:28:58;;;;;;;1999.90;999.90;;;21.70;99.90;;;;;;4956542;29;20138;-74
2023/06/18 06:31:24;;;;;;;1999.90;999.90;;;21.70;99.90;;;;;;4954179;28;20066;-71
2023/06/18 06:33:50;;;;;;;1999.90;999.90;;;21.80;99.90;;;;;;4960785;28;20486;-70
2023/06/18 06:36:16;;;;;;;1999.90;999.90;;;21.80;99.90;;;;;;4970017;28;20030;-70
2023/06/18 06:38:41;;;;;;;1999.90;999.90;;;21.80;99.90;;;;;;4975721;28;20363;-74
2023/06/18 06:41:07;;;;;;;1999.90;999.90;;;21.80;99.90;;;;;;4960109;28;20205;-70
2023/06/18 06:43:32;;;;;;;1999.90;999.90;;;21.80;99.90;;;;;;4956037;29;20035;-70
2023/06/18 06:45:58;;;;;;;1999.90;999.90;;;21.90;99.90;;;;;;4956365;29;20039;-70
2023/06/18 06:48:24;;;;;;;1999.90;999.90;;;21.80;99.90;;;;;;4955778;29;20079;-70
2023/06/18 06:50:49;;;;;;;1999.90;999.90;;;21.90;99.90;;;;;;4965531;28;20043;-70
2023/06/18 06:53:15;;;;;;;1999.90;999.90;;;22.00;99.90;;;;;;4963836;28;20032;-73
2023/06/18 06:55:40;;;;;;;1999.90;999.90;;;22.10;99.90;;;;;;4956070;28;20038;-71
2023/06/18 06:58:06;;;;;;;1999.90;999.90;;;22.10;99.90;;;;;;4956262;29;20054;-70
2023/06/18 07:00:32;;;;;;;1999.90;999.90;;;22.20;99.90;;;;;;4962349;28;20027;-70
2023/06/18 07:02:57;;;;;;;1999.90;999.90;;;22.20;99.90;;;;;;4956293;28;20027;-71
2023/06/18 07:05:23;;;;;;;1999.90;999.90;;;22.30;99.90;;;;;;4955822;29;20035;-74
2023/06/18 07:07:48;;;;;;;1999.90;999.90;;;22.30;99.90;;;;;;4955703;29;20028;-74
2023/06/18 07:10:14;;;;;;;1999.90;999.90;;;22.40;99.90;;;;;;4955701;28;20055;-71
2023/06/18 07:12:39;;;;;;;1999.90;999.90;;;22.50;99.90;;;;;;4962309;28;20080;-70
2023/06/18 07:15:06;;;;;;;1999.90;999.90;;;22.50;99.90;;;;;;4972154;28;20027;-70
2023/06/18 07:17:31;;;;;;;1999.90;999.90;;;22.70;99.90;;;;;;4955476;29;20023;-74
2023/06/18 07:19:57;;;;;;;1999.90;999.90;;;22.60;99.90;;;;;;4956515;28;20027;-73
2023/06/18 07:22:22;;;;;;;1999.90;999.90;;;22.50;99.90;;;;;;4975245;28;20026;-74
2023/06/18 07:24:48;;;;;;;1999.90;999.90;;;22.30;99.90;;;;;;4974203;28;20154;-70
2023/06/18 07:27:14;;;;;;;1999.90;999.90;;;22.30;99.90;;;;;;4954649;28;20024;-74
2023/06/18 07:29:40;;;;;;;1999.90;999.90;;;22.20;99.90;;;;;;4955557;29;20023;-69
2023/06/18 07:32:06;;;;;;;1999.90;999.90;;;22.00;99.90;;;;;;4955995;28;20038;-74
2023/06/18 07:34:31;;;;;;;1999.90;999.90;;;22.10;99.90;;;;;;4955112;29;20188;-70
2023/06/18 07:36:57;;;;;;;1999.90;999.90;;;22.00;99.90;;;;;;4938099;29;20027;-70
2023/06/18 07:39:23;;;;;;;1999.90;999.90;;;22.00;99.90;;;;;;4955220;29;20114;-70
2023/06/18 07:41:49;;;;;;;1999.90;999.90;;;22.10;99.90;;;;;;4954896;29;20031;-71
2023/06/18 07:44:15;;;;;;;1999.90;999.90;;;22.20;99.90;;;;;;4955022;29;20031;-74
2023/06/18 07:46:42;;;;;;;1999.90;999.90;;;22.40;99.90;;;;;;4955527;28;20538;-74
2023/06/18 07:49:08;;;;;;;1999.90;999.90;;;22.50;99.90;;;;;;4954921;29;20082;-70
2023/06/18 07:51:34;;;;;;;1999.90;999.90;;;22.60;99.90;;;;;;4966850;28;20516;-70
2023/06/18 07:54:00;;;;;;;1999.90;999.90;;;22.80;99.90;;;;;;4974468;28;20019;-70
2023/06/18 07:56:26;;;;;;;1999.90;999.90;;;22.80;99.90;;;;;;4974042;28;20030;-72
2023/06/18 07:58:52;;;;;;;1999.90;999.90;;;22.70;99.90;;;;;;4956909;28;20031;-74
2023/06/18 08:01:18;;;;;;;1999.90;999.90;;;22.70;99.90;;;;;;4958488;28;20435;-71
2023/06/18 08:03:43;;;;;;;1999.90;999.90;;;23.00;99.90;;;;;;4955071;29;20107;-71
2023/06/18 08:06:09;;;;;;;1999.90;999.90;;;23.10;99.90;;;;;;4962529;28;20031;-71
2023/06/18 08:08:35;;;;;;;1999.90;999.90;;;22.80;99.90;;;;;;4974190;28;20115;-71
2023/06/18 08:11:00;;;;;;;1999.90;999.90;;;22.50;99.90;;;;;;4974320;28;20547;-73
2023/06/18 08:13:26;;;;;;;1999.90;999.90;;;22.40;99.90;;;;;;4973949;28;20110;-71
2023/06/18 08:15:52;;;;;;;1999.90;999.90;;;22.20;99.90;;;;;;4974171;28;20023;-71
2023/06/18 08:18:17;;;;;;;1999.90;999.90;;;22.20;99.90;;;;;;4974306;28;20501;-71
2023/06/18 08:20:43;;;;;;;1999.90;999.90;;;22.20;99.90;;;;;;4974148;28;20019;-71
2023/06/18 08:23:08;;;;;;;1999.90;999.90;;;22.10;99.90;;;;;;4974202;28;20062;-74
2023/06/18 08:25:35;;;;;;;1999.90;999.90;;;22.00;99.90;;;;;;4974004;28;20042;-73
2023/06/18 08:28:00;;;;;;;1999.90;999.90;;;22.10;99.90;;;;;;4973670;28;20117;-71
2023/06/18 08:30:27;;;;;;;1999.90;999.90;;;22.70;99.90;;;;;;4970183;28;20071;-72
2023/06/18 08:32:55;;;;;;;1999.90;999.90;;;23.10;99.90;;;;;;4954787;29;20035;-72
2023/06/18 08:35:22;;;;;;;1999.90;999.90;;;23.70;99.90;;;;;;4956390;28;20020;-70
2023/06/18 08:37:47;;;;;;;1999.90;999.90;;;25.20;99.90;;;;;;4958726;29;20034;-71
2023/06/18 08:40:14;;;;;;;1999.90;999.90;;;25.10;99.90;;;;;;4958245;29;20389;-70
2023/06/18 08:42:40;;;;;;;1999.90;999.90;;;24.80;99.90;;;;;;4958442;29;20051;-70
2023/06/18 08:45:07;;;;;;;1999.90;999.90;;;24.20;99.90;;;;;;4958286;29;20431;-71
2023/06/18 08:47:33;;;;;;;1999.90;999.90;;;24.20;99.90;;;;;;4958038;29;20491;-71
2023/06/18 08:49:59;;;;;;;1999.90;999.90;;;24.70;99.90;;;;;;4958527;29;20118;-71
2023/06/18 08:52:29;;;;;;;1999.90;999.90;;;25.80;99.90;;;;;;4958214;29;20082;-71
2023/06/18 08:54:59;;;;;;;1999.90;999.90;;;25.70;99.90;;;;;;4958166;29;20019;-72
2023/06/18 08:57:35;;;;;;;1999.90;999.90;;;25.00;99.90;;;;;;4958128;29;20058;-74
2023/06/18 09:00:01;;;;;;;1999.90;999.90;;;24.40;99.90;;;;;;4958307;29;20035;-70
2023/06/18 09:02:27;;;;;;;1999.90;999.90;;;24.40;99.90;;;;;;4957685;28;20031;-75
2023/06/18 09:04:55;;;;;;;1999.90;999.90;;;24.10;99.90;;;;;;4958035;29;20106;-74
2023/06/18 09:07:21;;;;;;;1999.90;999.90;;;23.80;99.90;;;;;;4957994;29;20517;-70
2023/06/18 09:09:48;;;;;;;1999.90;999.90;;;23.50;99.90;;;;;;4957982;29;20095;-70
2023/06/18 09:12:14;;;;;;;1999.90;999.90;;;23.40;99.90;;;;;;4960696;28;20019;-70
2023/06/18 09:14:39;;;;;;;1999.90;999.90;;;23.20;99.90;;;;;;4977377;28;20026;-70
2023/06/18 09:17:05;;;;;;;1999.90;999.90;;;23.10;99.90;;;;;;4977018;28;20421;-74
2023/06/18 09:19:33;;;;;;;1999.90;999.90;;;23.20;99.90;;;;;;4977493;28;20033;-70
2023/06/18 09:22:15;;;;;;;1999.90;999.90;;;23.20;99.90;;;;;;4977546;28;20027;-71
2023/06/18 09:24:41;;;;;;;1999.90;999.90;;;23.20;99.90;;;;;;4959447;28;20030;-71
2023/06/18 09:27:07;;;;;;;1999.90;999.90;;;23.10;99.90;;;;;;4977251;28;20030;-71
2023/06/18 09:29:36;;;;;;;1999.90;999.90;;;23.10;99.90;;;;;;4976386;28;20031;-73
2023/06/18 09:32:14;;;;;;;1999.90;999.90;;;23.20;99.90;;;;;;4961074;28;20469;-71
2023/06/18 09:34:40;;;;;;;1999.90;999.90;;;23.20;99.90;;;;;;4957517;29;20046;-71
2023/06/18 09:37:07;;;;;;;1999.90;999.90;;;23.00;99.90;;;;;;4939863;29;20027;-70
2023/06/18 09:39:35;;;;;;;1999.90;999.90;;;23.00;99.90;;;;;;4957521;29;20433;-69
2023/06/18 09:42:07;;;;;;;1999.90;999.90;;;22.90;99.90;;;;;;4956946;29;20110;-73
2023/06/18 09:44:34;;;;;;;1999.90;999.90;;;22.60;99.90;;;;;;4957449;29;20023;-70
2023/06/18 09:46:59;;;;;;;1999.90;999.90;;;22.30;99.90;;;;;;4957112;28;20039;-69
2023/06/18 09:49:27;;;;;;;1999.90;999.90;;;22.30;99.90;;;;;;4956976;29;20051;-69
2023/06/18 09:51:53;;;;;;;1999.90;999.90;;;22.30;99.90;;;;;;4957441;29;20067;-69
2023/06/18 09:54:20;;;;;;;1999.90;999.90;;;22.30;99.90;;;;;;4957143;29;20027;-73
2023/06/18 09:57:06;;;;;;;1999.90;999.90;;;22.40;99.90;;;;;;4957262;28;20091;-75
2023/06/18 09:59:31;;;;;;;1999.90;999.90;;;22.70;99.90;;;;;;4957241;29;20023;-70
2023/06/18 10:01:57;;;;;;;1999.90;999.90;;;23.10;99.90;;;;;;4956522;28;20451;-70
2023/06/18 10:04:25;;;;;;;1999.90;999.90;;;23.30;99.90;;;;;;4957142;29;20502;-70
2023/06/18 10:06:58;;;;;;;1999.90;999.90;;;23.50;99.90;;;;;;4957236;29;20510;-74
2023/06/18 10:09:28;;;;;;;1999.90;999.90;;;23.40;99.90;;;;;;4957071;29;20482;-74
2023/06/18 10:11:56;;;;;;;1999.90;999.90;;;23.30;99.90;;;;;;4957425;28;20071;-71
2023/06/18 10:14:25;;;;;;;1999.90;999.90;;;23.30;99.90;;;;;;4975914;28;20023;-71
2023/06/18 10:16:54;;;;;;;1999.90;999.90;;;23.40;99.90;;;;;;4976285;28;20493;-71
2023/06/18 10:19:30;;;;;;;1999.90;999.90;;;23.70;99.90;;;;;;4976379;28;20074;-71
2023/06/18 10:22:03;;;;;;;1999.90;999.90;;;24.40;99.90;;;;;;4976260;28;20084;-74
2023/06/18 10:24:48;;;;;;;1999.90;999.90;;;25.40;99.90;;;;;;4975952;28;20027;-71
2023/06/18 10:27:15;;;;;;;1999.90;999.90;;;25.20;99.90;;;;;;4968524;28;20039;-71
2023/06/18 10:29:41;;;;;;;1999.90;999.90;;;25.00;99.90;;;;;;4975449;28;20034;-71
2023/06/18 10:32:07;;;;;;;1999.90;999.90;;;24.80;99.90;;;;;;4958967;28;20034;-70
2023/06/18 10:34:33;;;;;;;1999.90;999.90;;;24.20;99.90;;;;;;4956365;29;20059;-74
2023/06/18 10:37:00;;;;;;;1999.90;999.90;;;23.90;99.90;;;;;;4956746;29;20028;-71
2023/06/18 10:39:26;;;;;;;1999.90;999.90;;;23.80;99.90;;;;;;4938958;28;20398;-71
2023/06/18 10:41:53;;;;;;;1999.90;999.90;;;23.70;99.90;;;;;;4956046;29;20019;-73
2023/06/18 10:44:48;;;;;;;1999.90;999.90;;;23.40;99.90;;;;;;4956097;28;20387;-71
2023/06/18 10:47:23;;;;;;;1999.90;999.90;;;23.20;99.90;;;;;;4956293;29;20110;-74
2023/06/18 10:50:00;;;;;;;1999.90;999.90;;;23.10;99.90;;;;;;4956255;29;20143;-74
2023/06/18 10:52:29;;;;;;;1999.90;999.90;;;23.10;99.90;;;;;;4956012;29;20055;-72
2023/06/18 10:54:55;;;;;;;1999.90;999.90;;;23.00;99.90;;;;;;4956308;29;20102;-71
2023/06/18 10:57:29;;;;;;;1999.90;999.90;;;23.00;99.90;;;;;;4956312;28;20114;-71
2023/06/18 10:59:56;;;;;;;1999.90;999.90;;;22.80;99.90;;;;;;4955546;29;20059;-74
2023/06/18 11:02:35;;;;;;;1999.90;999.90;;;22.70;99.90;;;;;;4955502;28;20082;-73
2023/06/18 11:05:01;;;;;;;1999.90;999.90;;;22.70;99.90;;;;;;4956566;29;20114;-72
2023/06/18 11:07:27;;;;;;;1999.90;999.90;;;22.70;99.90;;;;;;4955864;29;20034;-72
2023/06/18 11:10:02;;;;;;;1999.90;999.90;;;22.60;99.90;;;;;;4955867;29;20058;-72
2023/06/18 11:12:29;;;;;;;1999.90;999.90;;;22.60;99.90;;;;;;4956092;29;20151;-73
2023/06/18 11:15:17;;;;;;;1999.90;999.90;;;22.60;99.90;;;;;;4955697;29;20478;-74
2023/06/18 11:17:49;;;;;;;1999.90;999.90;;;22.60;99.90;;;;;;4955833;29;20031;-72
2023/06/18 11:20:17;;;;;;;1999.90;999.90;;;22.60;99.90;;;;;;4955105;29;20142;-71
2023/06/18 11:22:43;;;;;;;1999.90;999.90;;;22.70;99.90;;;;;;4955746;29;20058;-72
2023/06/18 11:25:12;;;;;;;1999.90;999.90;;;22.00;99.90;;;;;;4955604;29;20098;-71
2023/06/18 11:27:42;;;;;;;1999.90;999.90;;;21.70;99.90;;;;;;4955764;29;20023;-74
2023/06/18 11:30:13;;;;;;;1999.90;999.90;;;21.40;99.90;;;;;;4955455;29;20038;-72
2023/06/18 11:32:42;;;;;;;1999.90;999.90;;;21.20;99.90;;;;;;4954880;29;20037;-72
2023/06/18 11:35:09;;;;;;;1999.90;999.90;;;20.90;99.90;;;;;;4955114;29;20490;-71
2023/06/18 11:37:39;;;;;;;1999.90;999.90;;;20.40;99.90;;;;;;4955353;29;20069;-72
2023/06/18 11:40:07;;;;;;;1999.90;999.90;;;20.00;99.90;;;;;;4937802;29;20398;-73
2023/06/18 11:42:37;;;;;;;1999.90;999.90;;;19.60;99.90;;;;;;4955438;29;20023;-72
2023/06/18 11:45:06;;;;;;;1999.90;999.90;;;19.30;99.90;;;;;;4955463;29;20079;-69
2023/06/18 11:47:34;;;;;;;1999.90;999.90;;;18.90;99.90;;;;;;4955199;29;20142;-72
2023/06/18 11:50:00;;;;;;;1999.90;999.90;;;18.60;99.90;;;;;;4955029;29;20494;-70
2023/06/18 11:52:27;;;;;;;1999.90;999.90;;;18.50;99.90;;;;;;4955125;29;20047;-73
2023/06/18 11:54:54;;;;;;;1999.90;999.90;;;18.60;99.90;;;;;;4955100;29;20106;-73
2023/06/18 11:57:22;;;;;;;1999.90;999.90;;;18.70;99.90;;;;;;4955146;28;20027;-71
2023/06/18 11:59:54;;;;;;;1999.90;999.90;;;18.70;99.90;;;;;;4955088;29;20031;-71